Terminal Aerodrome Forecast
Issued by NWS Duluth, MN

Home | Current Version | Previous Version | Text Only | Print | Product List | Glossary On
Versions: 1 2 3 4 5 6 7 8 9 10 11 12 13 14 15 16 17 18 19 20 21 22 23 24
964
FTUS43 KDLH 040540
TAFDLH
TAF
KDLH 040540Z 0406/0506 22004KT P6SM FEW050
     FM040900 22005KT 3SM -SN BKN030 OVC050
     FM041100 24006KT 1SM -SN SCT007 OVC012
     FM041400 26007KT 3SM -SN BKN012
     FM041600 30007KT P6SM SCT012=

USA.gov is the U.S. government's official web portal to all federal, state and local government web resources and services.